Time;durP1;ratioP1;P1;durP2;ratioP2;P2;SDS_P1;SDS_P2;PMS_P1;PMS_P2;Temp;Humidity;BMP_temperature;BMP_pressure;BME280_temperature;BME280_humidity;BME280_pressure;Samples;Min_cycle;Max_cycle;Signal;HPM_P1;HPM_P2
2020/12/27 00:02:14;;;;;;;18.73;10.40;;;0.90;99.90;;;;;;4995059;28;20038;-73
2020/12/27 00:04:41;;;;;;;16.70;10.27;;;0.90;99.90;;;;;;4994945;28;20034;-73
2020/12/27 00:07:11;;;;;;;21.30;11.50;;;0.90;99.90;;;;;;4994914;28;20066;-73
2020/12/27 00:09:38;;;;;;;19.38;10.80;;;0.90;99.90;;;;;;4995304;28;20034;-73
2020/12/27 00:12:05;;;;;;;24.52;11.68;;;0.80;99.90;;;;;;4995038;28;20026;-72
2020/12/27 00:14:31;;;;;;;19.02;11.05;;;0.80;99.90;;;;;;4977590;28;20485;-73
2020/12/27 00:17:02;;;;;;;24.67;12.30;;;0.80;99.90;;;;;;4994562;28;20058;-73
2020/12/27 00:19:28;;;;;;;20.25;11.68;;;0.80;99.90;;;;;;4994842;28;20660;-73
2020/12/27 00:21:54;;;;;;;20.38;11.82;;;0.80;99.90;;;;;;4977151;28;20113;-73
2020/12/27 00:24:20;;;;;;;21.85;12.13;;;0.80;99.90;;;;;;4994678;28;20077;-73
2020/12/27 00:26:45;;;;;;;19.23;10.70;;;0.70;99.90;;;;;;4994629;28;20027;-73
2020/12/27 00:29:11;;;;;;;20.52;11.35;;;0.70;99.90;;;;;;4994642;28;20026;-72
2020/12/27 00:31:37;;;;;;;19.08;11.32;;;0.70;99.90;;;;;;4994644;28;20078;-73
2020/12/27 00:34:02;;;;;;;21.40;11.02;;;0.70;99.90;;;;;;4994612;28;20074;-74
2020/12/27 00:36:28;;;;;;;23.25;11.68;;;0.60;99.90;;;;;;4994564;28;20090;-74
2020/12/27 00:38:54;;;;;;;20.88;11.50;;;0.60;99.90;;;;;;4994306;28;20030;-74
2020/12/27 00:41:21;;;;;;;19.05;11.35;;;0.60;99.90;;;;;;4994136;28;20445;-74
2020/12/27 00:43:48;;;;;;;19.70;11.32;;;0.60;99.90;;;;;;4976599;28;20030;-74
2020/12/27 00:46:15;;;;;;;21.27;11.68;;;0.60;99.90;;;;;;4976592;28;20065;-74
2020/12/27 00:48:40;;;;;;;21.83;11.55;;;0.60;99.90;;;;;;4994016;28;20098;-74
2020/12/27 00:51:06;;;;;;;20.42;12.35;;;0.50;99.90;;;;;;4993943;28;20019;-73
2020/12/27 00:53:32;;;;;;;20.77;11.52;;;0.50;99.90;;;;;;4994035;28;20026;-73
2020/12/27 00:55:58;;;;;;;19.20;11.48;;;0.60;99.90;;;;;;4993994;28;20058;-74
2020/12/27 00:58:23;;;;;;;22.48;11.68;;;0.50;99.90;;;;;;4993903;28;20026;-73
2020/12/27 01:00:49;;;;;;;23.45;11.68;;;0.50;99.90;;;;;;4993813;28;20055;-73
2020/12/27 01:03:15;;;;;;;19.17;11.07;;;0.60;99.90;;;;;;4993867;28;20477;-74
2020/12/27 01:05:42;;;;;;;22.65;12.20;;;0.50;99.90;;;;;;4993144;28;20499;-74
2020/12/27 01:08:08;;;;;;;23.50;12.00;;;0.50;99.90;;;;;;4976277;28;20033;-74
2020/12/27 01:10:33;;;;;;;22.05;11.77;;;0.60;99.90;;;;;;4993647;28;20388;-73
2020/12/27 01:12:59;;;;;;;19.10;11.30;;;0.60;99.90;;;;;;4993617;28;20082;-74
2020/12/27 01:15:25;;;;;;;21.52;10.65;;;0.50;99.90;;;;;;4993588;28;20029;-74
2020/12/27 01:17:50;;;;;;;19.20;10.73;;;0.50;99.90;;;;;;4993546;28;20026;-74
2020/12/27 01:20:16;;;;;;;20.05;11.45;;;0.60;99.90;;;;;;4993347;28;20022;-74
2020/12/27 01:22:42;;;;;;;19.70;11.02;;;0.60;99.90;;;;;;4993438;28;20025;-73
2020/12/27 01:25:11;;;;;;;21.13;12.02;;;0.60;99.90;;;;;;4993184;28;20026;-72
2020/12/27 01:27:37;;;;;;;28.63;11.93;;;0.60;99.90;;;;;;4975936;28;20026;-73
2020/12/27 01:30:06;;;;;;;21.50;11.88;;;0.60;99.90;;;;;;4993398;28;20022;-73
2020/12/27 01:32:31;;;;;;;21.27;11.93;;;0.60;99.90;;;;;;4993182;28;20022;-73
2020/12/27 01:34:57;;;;;;;22.88;13.10;;;0.50;99.90;;;;;;4993086;28;20045;-73
2020/12/27 01:37:23;;;;;;;25.20;14.38;;;0.50;99.90;;;;;;4993177;28;20081;-73
2020/12/27 01:39:49;;;;;;;25.08;14.30;;;0.50;99.90;;;;;;4975664;28;20030;-72
2020/12/27 01:42:14;;;;;;;25.92;13.55;;;0.50;99.90;;;;;;4993015;28;20073;-72
2020/12/27 01:44:40;;;;;;;20.63;12.27;;;0.50;99.90;;;;;;4992773;28;20037;-72
2020/12/27 01:47:21;;;;;;;20.55;10.13;;;0.50;99.90;;;;;;4992604;28;20047;-74
2020/12/27 01:49:48;;;;;;;19.25;10.88;;;0.50;99.90;;;;;;4993019;28;20034;-74
2020/12/27 01:52:14;;;;;;;16.60;10.63;;;0.50;99.90;;;;;;4993085;28;20026;-75
2020/12/27 01:54:40;;;;;;;17.83;10.55;;;0.50;99.90;;;;;;4975512;28;20037;-76
2020/12/27 01:57:15;;;;;;;18.30;9.30;;;0.50;99.90;;;;;;4992922;28;20425;-75
2020/12/27 01:59:41;;;;;;;16.33;9.38;;;0.50;99.90;;;;;;4992859;28;20081;-75
2020/12/27 02:02:08;;;;;;;18.75;10.02;;;0.50;99.90;;;;;;4975297;28;20045;-75
2020/12/27 02:04:34;;;;;;;17.67;10.35;;;0.50;99.90;;;;;;4992741;28;20061;-75
2020/12/27 02:07:04;;;;;;;19.58;11.27;;;0.40;99.90;;;;;;4992649;28;20410;-76
2020/12/27 02:09:30;;;;;;;22.45;12.68;;;0.50;99.90;;;;;;4975195;28;20540;-76
2020/12/27 02:12:11;;;;;;;23.77;13.38;;;0.40;99.90;;;;;;4992551;28;20114;-74
2020/12/27 02:14:37;;;;;;;21.67;12.85;;;0.40;99.90;;;;;;4992533;28;20022;-73
2020/12/27 02:17:05;;;;;;;20.88;13.13;;;0.40;99.90;;;;;;4992306;28;20121;-73
2020/12/27 02:19:31;;;;;;;21.83;13.32;;;0.40;99.90;;;;;;4992397;28;20061;-74
2020/12/27 02:21:57;;;;;;;21.33;12.43;;;0.40;99.90;;;;;;4992489;28;20023;-73
2020/12/27 02:24:23;;;;;;;21.58;11.43;;;0.40;99.90;;;;;;4992304;28;20102;-73
2020/12/27 02:27:01;;;;;;;20.70;11.70;;;0.40;99.90;;;;;;4992298;28;20022;-73
2020/12/27 02:29:28;;;;;;;16.23;9.77;;;0.40;99.90;;;;;;4992291;28;20358;-73
2020/12/27 02:31:55;;;;;;;16.05;9.88;;;0.40;99.90;;;;;;4992165;28;20033;-73
2020/12/27 02:34:22;;;;;;;16.67;9.60;;;0.40;99.90;;;;;;4992270;28;20097;-73
2020/12/27 02:36:48;;;;;;;13.77;9.20;;;0.40;99.90;;;;;;4992225;28;20089;-73
2020/12/27 02:39:15;;;;;;;12.88;8.32;;;0.40;99.90;;;;;;4992213;28;20031;-73
2020/12/27 02:41:41;;;;;;;13.68;8.57;;;0.40;99.90;;;;;;4992157;28;20023;-73
2020/12/27 02:44:08;;;;;;;14.10;8.45;;;0.30;99.90;;;;;;4992019;28;20035;-73
2020/12/27 02:46:35;;;;;;;13.20;8.00;;;0.40;99.90;;;;;;4991755;28;20022;-73
2020/12/27 02:49:01;;;;;;;15.82;9.05;;;0.30;99.90;;;;;;4991992;28;20054;-73
2020/12/27 02:51:28;;;;;;;13.07;8.65;;;0.30;99.90;;;;;;4974698;28;20037;-73
2020/12/27 02:53:55;;;;;;;14.07;8.93;;;0.30;99.90;;;;;;4992180;28;20101;-73
2020/12/27 02:56:26;;;;;;;19.35;9.77;;;0.30;99.90;;;;;;4974492;28;20058;-73
2020/12/27 02:58:53;;;;;;;16.00;9.05;;;0.20;99.90;;;;;;4992056;28;20042;-74
2020/12/27 03:01:19;;;;;;;17.23;10.00;;;0.20;99.90;;;;;;4992043;28;20449;-74
2020/12/27 03:03:45;;;;;;;18.92;9.82;;;0.20;99.90;;;;;;4991945;28;20037;-74
2020/12/27 03:06:11;;;;;;;14.43;9.07;;;0.20;99.90;;;;;;4991992;28;20030;-74
2020/12/27 03:08:38;;;;;;;13.38;8.85;;;0.10;99.90;;;;;;4992026;28;20033;-75
2020/12/27 03:11:04;;;;;;;15.95;9.93;;;0.10;99.90;;;;;;4991865;28;20027;-73
2020/12/27 03:13:31;;;;;;;15.90;9.90;;;0.10;99.90;;;;;;4991980;28;20073;-73
2020/12/27 03:15:57;;;;;;;16.27;9.98;;;0.10;99.90;;;;;;4991891;28;20031;-74
2020/12/27 03:18:23;;;;;;;16.33;9.05;;;0.10;99.90;;;;;;4991767;28;20477;-74
2020/12/27 03:20:50;;;;;;;14.20;8.93;;;0.10;99.90;;;;;;4974421;28;20128;-74
2020/12/27 03:23:16;;;;;;;14.38;8.18;;;0.10;99.90;;;;;;4974279;28;20030;-74
2020/12/27 03:25:44;;;;;;;13.98;7.93;;;0.10;99.90;;;;;;4992002;28;20076;-74
2020/12/27 03:28:11;;;;;;;13.35;7.88;;;0.10;99.90;;;;;;4991785;28;20030;-74
2020/12/27 03:30:36;;;;;;;15.00;8.52;;;0.10;99.90;;;;;;4994300;28;20029;-74
2020/12/27 03:33:03;;;;;;;15.15;8.90;;;0.10;99.90;;;;;;4978170;28;20023;-74
2020/12/27 03:35:28;;;;;;;15.00;9.02;;;0.00;99.90;;;;;;4995458;28;20019;-74
2020/12/27 03:37:54;;;;;;;13.38;8.45;;;0.00;99.90;;;;;;4995343;28;20377;-74
2020/12/27 03:40:20;;;;;;;15.63;8.65;;;0.00;99.90;;;;;;4995307;28;20488;-74
2020/12/27 03:42:46;;;;;;;14.32;8.70;;;0.00;99.90;;;;;;4995127;28;20093;-74
2020/12/27 03:45:12;;;;;;;15.90;9.07;;;0.00;99.90;;;;;;4977606;28;20035;-74
2020/12/27 03:47:38;;;;;;;17.20;9.30;;;0.00;99.90;;;;;;4994905;28;20562;-74
2020/12/27 03:50:04;;;;;;;14.73;9.13;;;0.00;99.90;;;;;;4977622;28;20027;-74
2020/12/27 03:52:30;;;;;;;15.05;8.63;;;-0.10;99.90;;;;;;4977639;28;20023;-74
2020/12/27 03:54:55;;;;;;;14.82;8.07;;;-0.10;99.90;;;;;;4994846;28;20027;-75
2020/12/27 03:57:21;;;;;;;12.73;7.82;;;-0.10;99.90;;;;;;4994929;28;20026;-75
2020/12/27 03:59:47;;;;;;;15.50;8.07;;;-0.10;99.90;;;;;;4977446;28;20027;-74
2020/12/27 04:02:13;;;;;;;18.60;8.05;;;-0.10;99.90;;;;;;4994910;28;20162;-74
2020/12/27 04:04:38;;;;;;;14.10;8.05;;;-0.10;99.90;;;;;;4994606;28;20057;-74
2020/12/27 04:07:04;;;;;;;14.60;8.75;;;-0.10;99.90;;;;;;4994814;28;20030;-74
2020/12/27 04:09:31;;;;;;;14.48;8.23;;;-0.10;99.90;;;;;;4977271;28;20384;-74
2020/12/27 04:11:56;;;;;;;16.20;8.70;;;-0.20;99.90;;;;;;4994557;28;20022;-74
2020/12/27 04:14:22;;;;;;;16.77;8.88;;;-0.20;99.90;;;;;;4994760;28;20515;-73
2020/12/27 04:16:48;;;;;;;15.45;8.35;;;-0.20;99.90;;;;;;4994794;28;20034;-75
2020/12/27 04:19:13;;;;;;;15.13;8.32;;;-0.20;99.90;;;;;;4994773;28;20190;-74
2020/12/27 04:21:45;;;;;;;14.90;8.82;;;-0.20;99.90;;;;;;4994438;28;20023;-75
2020/12/27 04:24:11;;;;;;;17.02;9.18;;;-0.30;99.90;;;;;;4994484;28;20366;-74
2020/12/27 04:26:37;;;;;;;15.98;8.63;;;-0.20;99.90;;;;;;4994515;28;20038;-74
2020/12/27 04:29:02;;;;;;;18.27;9.15;;;-0.30;99.90;;;;;;4994688;28;20022;-74
2020/12/27 04:31:28;;;;;;;18.23;9.32;;;-0.30;99.90;;;;;;4994471;28;20033;-75
2020/12/27 04:33:54;;;;;;;19.05;9.60;;;-0.30;99.90;;;;;;4976830;28;20030;-75
2020/12/27 04:36:20;;;;;;;19.00;9.80;;;-0.30;99.90;;;;;;4994097;28;20026;-75
2020/12/27 04:38:46;;;;;;;18.90;9.77;;;-0.30;99.90;;;;;;4994137;28;20081;-76
2020/12/27 04:41:14;;;;;;;18.40;9.50;;;-0.30;99.90;;;;;;4994096;28;20037;-75
2020/12/27 04:43:42;;;;;;;18.02;9.35;;;-0.30;99.90;;;;;;4976397;28;20026;-74
2020/12/27 04:46:10;;;;;;;20.25;10.13;;;-0.30;99.90;;;;;;4976443;28;20109;-75
2020/12/27 04:48:38;;;;;;;24.48;10.05;;;-0.30;99.90;;;;;;4991652;28;20078;-74
2020/12/27 04:51:06;;;;;;;20.23;10.55;;;-0.30;99.90;;;;;;4976551;28;20046;-75
2020/12/27 04:53:36;;;;;;;18.48;9.32;;;-0.30;99.90;;;;;;4994117;28;20037;-75
2020/12/27 04:56:04;;;;;;;16.65;9.30;;;-0.30;99.90;;;;;;4993453;28;20030;-75
2020/12/27 04:58:29;;;;;;;21.98;10.55;;;-0.30;99.90;;;;;;4993866;28;20583;-75
2020/12/27 05:01:00;;;;;;;21.00;9.43;;;-0.30;99.90;;;;;;4993570;28;20030;-75
2020/12/27 05:03:26;;;;;;;22.90;10.85;;;-0.30;99.90;;;;;;4993518;28;20022;-74
2020/12/27 05:05:54;;;;;;;18.35;11.35;;;-0.20;99.90;;;;;;5008565;28;20027;-74
2020/12/27 05:08:20;;;;;;;22.60;12.38;;;-0.30;99.90;;;;;;4976175;28;20491;-75
2020/12/27 05:10:46;;;;;;;25.95;13.55;;;-0.30;99.90;;;;;;4993636;28;20381;-75
2020/12/27 05:13:14;;;;;;;26.33;12.55;;;-0.30;99.90;;;;;;4993454;28;20018;-76
2020/12/27 05:15:40;;;;;;;23.75;12.45;;;-0.30;99.90;;;;;;4993547;28;20027;-75
2020/12/27 05:18:07;;;;;;;23.02;12.02;;;-0.30;99.90;;;;;;5008361;28;20117;-75
2020/12/27 05:20:34;;;;;;;22.80;11.57;;;-0.30;99.90;;;;;;4993237;28;20022;-76
2020/12/27 05:23:02;;;;;;;20.48;10.60;;;-0.30;99.90;;;;;;4975767;28;20050;-75
2020/12/27 05:25:32;;;;;;;21.25;11.05;;;-0.30;99.90;;;;;;4993123;28;20022;-75
2020/12/27 05:28:09;;;;;;;20.95;10.95;;;-0.30;99.90;;;;;;4975716;28;20389;-75
2020/12/27 05:30:36;;;;;;;23.83;9.90;;;-0.40;99.90;;;;;;4992800;28;20125;-75
2020/12/27 05:33:17;;;;;;;22.85;11.00;;;-0.40;99.90;;;;;;4993030;28;20101;-75
2020/12/27 05:35:43;;;;;;;24.15;10.07;;;-0.40;99.90;;;;;;5008007;28;20118;-75
2020/12/27 05:38:10;;;;;;;23.60;9.88;;;-0.40;99.90;;;;;;4993017;28;20432;-74
2020/12/27 05:40:38;;;;;;;19.33;10.60;;;-0.40;99.90;;;;;;4993245;28;20109;-75
2020/12/27 05:43:17;;;;;;;20.60;9.80;;;-0.40;99.90;;;;;;4992582;28;20031;-74
2020/12/27 05:45:44;;;;;;;20.05;10.00;;;-0.40;99.90;;;;;;4993063;28;20097;-79
2020/12/27 05:48:10;;;;;;;21.33;10.80;;;-0.40;99.90;;;;;;4993167;28;20049;-79
2020/12/27 05:50:39;;;;;;;19.70;10.95;;;-0.30;99.90;;;;;;4993286;28;20022;-79
2020/12/27 05:53:20;;;;;;;19.75;10.48;;;-0.30;99.90;;;;;;4975362;28;20026;-78
2020/12/27 05:55:48;;;;;;;22.65;11.10;;;-0.30;99.90;;;;;;5007955;28;20062;-79
2020/12/27 05:58:18;;;;;;;22.13;10.90;;;-0.30;99.90;;;;;;4992990;28;20026;-79
2020/12/27 06:00:48;;;;;;;23.23;11.18;;;-0.30;99.90;;;;;;4993064;28;20031;-77
2020/12/27 06:03:28;;;;;;;22.38;11.05;;;-0.20;99.90;;;;;;4992989;28;20528;-78
2020/12/27 06:05:53;;;;;;;20.17;10.25;;;-0.10;99.90;;;;;;4993334;28;20485;-80
2020/12/27 06:08:59;;;;;;;17.77;9.88;;;0.20;99.90;;;;;;4992984;28;20110;-78
2020/12/27 06:11:52;;;;;;;19.80;9.38;;;0.70;99.90;;;;;;4973402;28;20073;-78
2020/12/27 06:14:38;;;;;;;16.90;9.10;;;1.30;99.90;;;;;;4992303;28;20026;-76
2020/12/27 06:17:13;;;;;;;18.35;9.45;;;1.90;99.90;;;;;;4992216;28;20049;-76
2020/12/27 06:19:40;;;;;;;16.80;9.27;;;2.40;99.90;;;;;;4974232;28;20481;-76
2020/12/27 06:22:09;;;;;;;14.95;8.77;;;2.90;99.90;;;;;;4992148;28;20058;-77
2020/12/27 06:24:37;;;;;;;16.60;9.02;;;3.40;99.90;;;;;;4973915;28;20054;-76
2020/12/27 06:27:05;;;;;;;16.00;8.20;;;3.90;99.90;;;;;;4991388;28;20470;-76
2020/12/27 06:29:53;;;;;;;14.00;8.48;;;4.40;99.90;;;;;;4991101;28;20162;-76
2020/12/27 06:32:23;;;;;;;15.13;8.07;;;5.00;99.90;;;;;;4974046;28;20487;-77
2020/12/27 06:34:50;;;;;;;14.23;8.63;;;5.40;99.90;;;;;;4991045;28;20030;-77
2020/12/27 06:37:17;;;;;;;14.90;8.77;;;5.80;99.90;;;;;;4991226;28;20141;-76
2020/12/27 06:39:45;;;;;;;12.93;8.65;;;6.20;99.90;;;;;;4991353;28;20433;-76
2020/12/27 06:42:16;;;;;;;15.02;8.38;;;6.50;99.90;;;;;;4991421;28;20356;-76
2020/12/27 06:44:46;;;;;;;12.60;8.95;;;6.90;99.90;;;;;;4991343;28;20034;-78
2020/12/27 06:47:13;;;;;;;15.52;9.60;;;7.20;99.90;;;;;;4973705;28;20054;-79
2020/12/27 06:49:39;;;;;;;17.63;10.35;;;7.40;99.90;;;;;;4991653;28;20038;-78
2020/12/27 06:52:21;;;;;;;15.18;10.07;;;7.60;99.90;;;;;;4991737;28;20034;-79
2020/12/27 06:54:52;;;;;;;17.42;9.98;;;7.80;99.90;;;;;;4991620;28;20047;-79
2020/12/27 06:57:44;;;;;;;16.30;10.15;;;7.90;99.90;;;;;;4990978;28;20121;-79
2020/12/27 07:00:27;;;;;;;21.42;11.52;;;8.00;99.90;;;;;;4990946;28;20142;-80
2020/12/27 07:03:12;;;;;;;17.42;10.40;;;8.10;99.90;;;;;;4991289;28;20022;-77
2020/12/27 07:05:39;;;;;;;17.67;9.88;;;8.20;99.90;;;;;;4995043;28;20054;-78
2020/12/27 07:08:07;;;;;;;17.98;9.95;;;8.30;99.90;;;;;;4996195;28;20018;-79
2020/12/27 07:10:35;;;;;;;14.80;10.07;;;8.40;99.90;;;;;;4978631;28;20358;-78
2020/12/27 07:13:10;;;;;;;15.88;10.43;;;8.50;99.90;;;;;;4998117;28;20049;-83
2020/12/27 07:15:45;;;;;;;18.17;11.30;;;8.60;99.90;;;;;;4996626;28;20389;-82
2020/12/27 07:18:11;;;;;;;17.60;11.00;;;8.80;99.90;;;;;;4994808;28;20023;-79
2020/12/27 07:20:43;;;;;;;17.08;10.65;;;8.90;99.90;;;;;;4994889;28;20022;-78
2020/12/27 07:23:17;;;;;;;18.40;10.75;;;9.10;99.90;;;;;;4994844;28;20088;-79
2020/12/27 07:25:43;;;;;;;16.48;10.20;;;9.30;99.90;;;;;;4994898;28;20071;-78
2020/12/27 07:28:11;;;;;;;16.30;10.55;;;9.40;99.90;;;;;;5009488;28;20023;-78
2020/12/27 07:30:38;;;;;;;15.45;10.75;;;9.50;99.90;;;;;;4994893;28;20034;-78
2020/12/27 07:33:10;;;;;;;19.08;10.95;;;9.70;99.90;;;;;;4995614;28;20085;-78
2020/12/27 07:35:36;;;;;;;16.17;10.80;;;9.90;99.90;;;;;;4995519;28;20027;-78
2020/12/27 07:38:04;;;;;;;20.92;11.68;;;10.00;99.90;;;;;;5015780;28;20124;-85
2020/12/27 07:40:37;;;;;;;19.55;10.25;;;10.20;99.90;;;;;;5019991;28;20457;-84
2020/12/27 07:43:10;;;;;;;17.55;11.40;;;10.30;99.90;;;;;;4981500;28;20550;-82
2020/12/27 07:45:36;;;;;;;17.98;11.73;;;10.50;99.90;;;;;;4978861;28;20034;-84
2020/12/27 07:48:05;;;;;;;22.70;13.00;;;10.70;99.90;;;;;;4996529;28;20042;-83
2020/12/27 07:50:30;;;;;;;21.73;12.35;;;10.80;99.90;;;;;;4996720;28;20552;-81
2020/12/27 07:52:59;;;;;;;19.05;12.02;;;10.90;99.90;;;;;;4996479;28;20109;-82
2020/12/27 07:55:32;;;;;;;19.38;12.18;;;11.00;99.90;;;;;;4995990;28;20073;-84
2020/12/27 07:58:03;;;;;;;22.02;12.40;;;11.10;99.90;;;;;;4996220;28;20026;-83
2020/12/27 08:00:37;;;;;;;21.45;13.38;;;11.20;99.90;;;;;;4979470;28;20027;-83
2020/12/27 08:03:06;;;;;;;24.10;14.05;;;11.30;99.90;;;;;;4996807;28;20053;-82
2020/12/27 08:05:33;;;;;;;24.70;14.23;;;11.40;99.90;;;;;;4996762;28;20832;-83
2020/12/27 08:08:10;;;;;;;19.23;12.40;;;11.60;99.90;;;;;;5016817;28;20030;-83
2020/12/27 08:10:36;;;;;;;17.15;11.45;;;11.70;99.90;;;;;;5004194;28;20033;-84
2020/12/27 08:13:04;;;;;;;19.60;12.70;;;11.80;99.90;;;;;;5000288;28;20030;-84
2020/12/27 08:15:35;;;;;;;18.80;12.18;;;12.00;99.90;;;;;;4982096;28;20437;-82
2020/12/27 08:18:09;;;;;;;25.88;13.82;;;12.10;99.90;;;;;;4999539;28;20041;-82
2020/12/27 08:20:45;;;;;;;18.92;11.88;;;12.20;99.90;;;;;;4998095;28;20051;-82
2020/12/27 08:23:11;;;;;;;17.83;11.93;;;12.40;99.90;;;;;;5012923;28;20022;-84
2020/12/27 08:25:38;;;;;;;18.35;11.50;;;12.50;99.70;;;;;;4978156;28;20496;-83
2020/12/27 08:28:08;;;;;;;19.30;11.80;;;12.60;99.40;;;;;;4996385;28;20029;-84
2020/12/27 08:30:35;;;;;;;17.90;10.65;;;12.70;99.20;;;;;;4977927;28;20026;-84
2020/12/27 08:33:15;;;;;;;21.80;12.88;;;12.80;98.80;;;;;;4996055;28;20026;-83
2020/12/27 08:35:46;;;;;;;18.02;12.30;;;12.90;98.40;;;;;;4977905;28;20093;-88
2020/12/27 08:38:52;;;;;;;28.95;15.55;;;13.00;97.90;;;;;;4978225;28;20026;-85
2020/12/27 08:41:27;;;;;;;21.40;12.68;;;13.10;97.70;;;;;;4995234;28;20038;-84
2020/12/27 08:44:02;;;;;;;22.02;13.32;;;13.30;97.70;;;;;;4994808;28;20022;-85
2020/12/27 08:46:36;;;;;;;22.17;14.52;;;13.40;97.40;;;;;;4994706;28;20023;-84
2020/12/27 08:49:17;;;;;;;27.58;16.27;;;13.50;97.00;;;;;;4977665;28;20437;-82
2020/12/27 08:51:45;;;;;;;24.83;15.48;;;13.60;96.40;;;;;;4995243;28;20026;-84
2020/12/27 08:54:14;;;;;;;28.15;16.73;;;13.70;96.10;;;;;;4994523;28;20026;-84
2020/12/27 08:56:40;;;;;;;28.17;16.42;;;13.70;95.80;;;;;;4994798;28;20022;-84
2020/12/27 08:59:06;;;;;;;28.48;17.60;;;13.80;95.20;;;;;;4994795;28;20029;-83
2020/12/27 09:01:33;;;;;;;30.17;16.70;;;13.90;95.00;;;;;;4976780;28;20028;-83
2020/12/27 09:03:59;;;;;;;37.30;17.27;;;14.00;94.90;;;;;;4994116;28;20073;-84
2020/12/27 09:06:24;;;;;;;25.77;16.27;;;14.00;94.90;;;;;;4994263;28;20046;-83
2020/12/27 09:08:59;;;;;;;24.17;16.35;;;14.10;94.40;;;;;;4994169;28;20031;-82
2020/12/27 09:11:26;;;;;;;23.10;14.00;;;14.20;93.90;;;;;;4994238;28;20018;-82
2020/12/27 09:13:55;;;;;;;25.05;14.63;;;14.30;93.70;;;;;;4976480;28;20037;-87
2020/12/27 09:16:34;;;;;;;20.38;13.40;;;14.30;93.30;;;;;;4994092;28;20030;-82
2020/12/27 09:19:09;;;;;;;20.13;13.82;;;14.30;92.90;;;;;;4994177;28;20385;-80
2020/12/27 09:21:40;;;;;;;30.70;13.70;;;14.40;92.50;;;;;;5008874;28;20102;-82
2020/12/27 09:24:16;;;;;;;26.38;13.00;;;14.30;92.20;;;;;;4993968;28;20109;-81
2020/12/27 09:26:41;;;;;;;22.33;12.63;;;14.30;91.60;;;;;;4975519;28;20034;-80
2020/12/27 09:29:19;;;;;;;18.27;11.98;;;14.30;91.60;;;;;;4994411;28;20118;-81
2020/12/27 09:31:46;;;;;;;18.25;12.50;;;14.30;91.50;;;;;;4981126;28;20050;-82
2020/12/27 09:34:13;;;;;;;18.38;10.90;;;14.40;91.50;;;;;;4998237;28;20073;-81
2020/12/27 09:36:39;;;;;;;23.30;12.30;;;14.50;91.50;;;;;;4999439;28;20026;-81
2020/12/27 09:39:05;;;;;;;24.58;13.82;;;14.50;91.40;;;;;;4977794;28;20026;-85
2020/12/27 09:41:38;;;;;;;25.85;13.02;;;14.50;91.30;;;;;;4994429;28;20034;-84
2020/12/27 09:44:05;;;;;;;25.65;11.20;;;14.40;90.90;;;;;;4994084;28;20022;-86
2020/12/27 09:46:47;;;;;;;17.65;10.48;;;14.20;90.90;;;;;;4999916;28;20018;-86
2020/12/27 09:49:41;;;;;;;21.33;12.70;;;14.00;91.00;;;;;;4993760;28;20050;-87
2020/12/27 09:52:10;;;;;;;21.92;13.38;;;13.80;91.20;;;;;;4992253;28;20088;-87
2020/12/27 09:54:37;;;;;;;22.77;11.95;;;13.80;91.30;;;;;;5009482;28;20041;-88
2020/12/27 09:57:20;;;;;;;19.70;11.98;;;13.70;91.30;;;;;;4981195;28;20560;-88
2020/12/27 09:59:48;;;;;;;28.63;12.27;;;13.70;91.50;;;;;;4993852;28;20026;-86
2020/12/27 10:02:15;;;;;;;16.98;11.10;;;13.70;91.70;;;;;;4976974;28;20093;-87
2020/12/27 10:04:40;;;;;;;20.58;11.18;;;13.90;91.80;;;;;;4994099;28;20786;-86
2020/12/27 10:07:06;;;;;;;35.05;12.68;;;14.10;91.30;;;;;;4977017;28;20077;-90
2020/12/27 10:09:32;;;;;;;24.17;11.32;;;14.30;90.90;;;;;;4974132;28;20038;-78
2020/12/27 10:11:58;;;;;;;19.80;11.20;;;14.50;90.50;;;;;;4991740;28;20093;-81
2020/12/27 10:14:24;;;;;;;28.13;11.18;;;14.60;89.90;;;;;;4991059;28;20032;-78
2020/12/27 10:16:50;;;;;;;22.48;10.38;;;14.70;89.30;;;;;;4991139;28;20042;-77
2020/12/27 10:19:15;;;;;;;30.25;10.88;;;14.90;89.40;;;;;;4992701;28;20119;-84
2020/12/27 10:21:48;;;;;;;35.70;10.95;;;15.20;89.90;;;;;;5006820;28;20030;-78
2020/12/27 10:24:15;;;;;;;24.45;10.65;;;15.40;89.00;;;;;;4973912;28;20054;-79
2020/12/27 10:26:41;;;;;;;33.03;12.13;;;15.60;88.90;;;;;;4992023;28;20105;-79
2020/12/27 10:29:07;;;;;;;24.67;11.25;;;15.80;87.90;;;;;;4991782;28;20062;-80
2020/12/27 10:31:32;;;;;;;23.00;10.57;;;16.00;86.70;;;;;;4991573;28;20057;-80
2020/12/27 10:33:59;;;;;;;26.98;11.15;;;16.00;86.00;;;;;;4991811;28;20038;-80
2020/12/27 10:36:25;;;;;;;23.00;12.32;;;16.10;85.50;;;;;;4991531;28;20026;-79
2020/12/27 10:38:51;;;;;;;18.08;10.55;;;16.30;85.70;;;;;;4991339;28;20057;-78
2020/12/27 10:41:17;;;;;;;15.52;9.88;;;16.40;85.20;;;;;;4991252;28;20073;-79
2020/12/27 10:43:49;;;;;;;15.10;10.23;;;16.40;84.20;;;;;;4973755;28;20366;-80
2020/12/27 10:46:15;;;;;;;17.77;9.95;;;16.50;84.10;;;;;;4991415;28;20050;-80
2020/12/27 10:48:42;;;;;;;18.67;9.70;;;16.50;83.70;;;;;;4974143;28;20385;-77
2020/12/27 10:51:08;;;;;;;17.52;10.45;;;16.50;82.70;;;;;;4991415;28;20365;-81
2020/12/27 10:53:34;;;;;;;16.25;9.82;;;16.60;82.60;;;;;;4991598;28;20036;-80
2020/12/27 10:56:00;;;;;;;12.25;9.10;;;16.60;82.40;;;;;;4973608;28;20026;-79
2020/12/27 10:58:25;;;;;;;14.57;9.68;;;16.50;82.00;;;;;;4991044;28;20023;-79
2020/12/27 11:00:51;;;;;;;20.38;11.00;;;16.40;82.00;;;;;;4991055;28;20487;-79
2020/12/27 11:03:17;;;;;;;25.85;10.07;;;16.20;82.00;;;;;;4973750;28;20030;-79
2020/12/27 11:05:42;;;;;;;14.35;8.48;;;16.00;81.80;;;;;;4992320;28;20072;-78
2020/12/27 11:08:08;;;;;;;13.27;8.98;;;15.70;81.90;;;;;;4974403;28;20105;-80
2020/12/27 11:10:34;;;;;;;14.63;8.75;;;15.30;81.80;;;;;;4991309;28;20428;-80
2020/12/27 11:13:00;;;;;;;12.52;8.40;;;15.00;81.70;;;;;;4991447;28;20022;-79
2020/12/27 11:15:27;;;;;;;18.50;9.82;;;14.70;81.50;;;;;;4991716;28;20069;-78
2020/12/27 11:17:52;;;;;;;14.50;9.10;;;14.50;81.50;;;;;;4992158;28;20042;-78
2020/12/27 11:20:18;;;;;;;34.80;14.52;;;14.50;81.70;;;;;;4992446;28;20034;-79
2020/12/27 11:22:44;;;;;;;17.50;11.15;;;14.50;81.50;;;;;;4992060;28;20701;-80
2020/12/27 11:25:10;;;;;;;15.25;9.18;;;14.70;82.30;;;;;;4992142;28;20030;-78
2020/12/27 11:27:36;;;;;;;24.23;10.48;;;14.90;81.70;;;;;;4992415;28;20385;-80
2020/12/27 11:30:04;;;;;;;23.42;14.25;;;15.10;81.00;;;;;;4975384;28;20022;-80
2020/12/27 11:32:30;;;;;;;13.18;9.70;;;15.30;81.20;;;;;;4992480;28;20030;-80
2020/12/27 11:34:56;;;;;;;22.60;12.68;;;15.60;80.90;;;;;;4994894;28;20073;-81
2020/12/27 11:37:21;;;;;;;18.40;12.27;;;15.80;80.70;;;;;;4992594;28;20040;-79
2020/12/27 11:39:47;;;;;;;26.90;10.88;;;16.00;80.70;;;;;;4973627;28;20122;-80
2020/12/27 11:42:13;;;;;;;26.85;12.07;;;16.20;80.90;;;;;;4990319;28;20449;-79
2020/12/27 11:44:39;;;;;;;12.25;7.80;;;16.10;79.10;;;;;;4990928;28;20033;-81
2020/12/27 11:47:06;;;;;;;17.30;9.18;;;15.70;75.70;;;;;;4990510;28;20146;-77
2020/12/27 11:49:32;;;;;;;13.18;8.90;;;14.90;76.20;;;;;;4973384;28;20061;-83
2020/12/27 11:51:57;;;;;;;16.77;9.95;;;14.10;76.20;;;;;;4976430;28;20062;-80
2020/12/27 11:54:24;;;;;;;14.60;8.50;;;13.60;77.50;;;;;;4977452;28;20034;-84
2020/12/27 11:56:53;;;;;;;13.45;8.70;;;13.00;78.70;;;;;;4978434;28;20034;-84
2020/12/27 11:59:19;;;;;;;14.48;9.30;;;12.70;79.90;;;;;;4995328;28;20022;-81
2020/12/27 12:01:45;;;;;;;14.38;9.75;;;12.40;80.50;;;;;;4994503;28;20468;-77
2020/12/27 12:04:11;;;;;;;21.17;10.75;;;12.00;80.90;;;;;;4994181;28;20034;-81
2020/12/27 12:06:37;;;;;;;32.38;13.48;;;11.70;81.40;;;;;;4976909;28;20481;-76
2020/12/27 12:09:02;;;;;;;16.60;10.07;;;11.40;81.60;;;;;;4993387;28;20052;-77
2020/12/27 12:11:39;;;;;;;18.17;8.88;;;11.10;82.30;;;;;;4993205;28;20022;-79
2020/12/27 12:14:06;;;;;;;21.90;8.90;;;10.80;82.30;;;;;;4975835;28;20030;-78
2020/12/27 12:16:32;;;;;;;25.17;10.80;;;10.40;82.20;;;;;;4993452;28;20142;-76
2020/12/27 12:18:59;;;;;;;24.05;13.52;;;10.10;83.00;;;;;;4978185;28;20058;-77
2020/12/27 12:21:26;;;;;;;21.23;12.10;;;9.80;83.70;;;;;;4992924;28;20058;-82
2020/12/27 12:23:52;;;;;;;24.98;11.90;;;9.60;84.50;;;;;;4975902;28;20081;-80
2020/12/27 12:26:19;;;;;;;23.98;11.27;;;9.40;85.10;;;;;;4993095;28;20018;-79
2020/12/27 12:28:45;;;;;;;19.30;11.70;;;9.20;85.40;;;;;;4993452;28;20107;-76
2020/12/27 12:31:12;;;;;;;22.33;12.02;;;9.00;85.70;;;;;;4993036;28;20101;-75
2020/12/27 12:33:38;;;;;;;23.42;12.52;;;8.80;85.90;;;;;;4975437;28;20097;-74
2020/12/27 12:36:05;;;;;;;26.08;12.48;;;8.60;86.20;;;;;;4993433;28;20549;-75
2020/12/27 12:38:32;;;;;;;18.52;12.05;;;8.40;87.30;;;;;;4993161;28;20023;-77
2020/12/27 12:40:58;;;;;;;19.33;12.27;;;8.30;87.00;;;;;;4993255;28;20022;-75
2020/12/27 12:43:24;;;;;;;19.60;12.25;;;8.10;87.30;;;;;;4992962;28;20084;-76